sensor_id;sensor_type;location;lat;lon;timestamp;temperature;humidity
10662;DHT22;5379;51.034;7.006;2023-07-29T04:33:21;24.40;99.90
10662;DHT22;5379;51.034;7.006;2023-07-29T04:35:48;24.70;99.90
10662;DHT22;5379;51.034;7.006;2023-07-29T04:38:16;24.60;99.90
10662;DHT22;5379;51.034;7.006;2023-07-29T04:40:43;24.60;99.90
10662;DHT22;5379;51.034;7.006;2023-07-29T04:43:10;24.60;99.90
10662;DHT22;5379;51.034;7.006;2023-07-29T04:45:42;24.60;99.90
10662;DHT22;5379;51.034;7.006;2023-07-29T04:48:10;24.50;99.90
10662;DHT22;5379;51.034;7.006;2023-07-29T04:50:37;24.80;99.90
10662;DHT22;5379;51.034;7.006;2023-07-29T04:53:04;25.10;99.90
10662;DHT22;5379;51.034;7.006;2023-07-29T04:55:31;25.40;99.90
10662;DHT22;5379;51.034;7.006;2023-07-29T04:57:58;25.30;99.90
10662;DHT22;5379;51.034;7.006;2023-07-29T05:00:26;25.00;99.90
10662;DHT22;5379;51.034;7.006;2023-07-29T05:02:53;25.00;99.90
10662;DHT22;5379;51.034;7.006;2023-07-29T05:05:21;24.80;99.90
10662;DHT22;5379;51.034;7.006;2023-07-29T05:07:48;24.60;99.90
10662;DHT22;5379;51.034;7.006;2023-07-29T05:10:15;24.60;99.90
10662;DHT22;5379;51.034;7.006;2023-07-29T05:12:42;24.50;99.90
10662;DHT22;5379;51.034;7.006;2023-07-29T05:15:10;24.50;99.90
10662;DHT22;5379;51.034;7.006;2023-07-29T05:17:37;24.50;99.90
10662;DHT22;5379;51.034;7.006;2023-07-29T05:20:05;24.40;99.90
10662;DHT22;5379;51.034;7.006;2023-07-29T05:22:33;24.40;99.90
10662;DHT22;5379;51.034;7.006;2023-07-29T05:25:00;24.40;99.90
10662;DHT22;5379;51.034;7.006;2023-07-29T05:27:27;24.40;99.90
10662;DHT22;5379;51.034;7.006;2023-07-29T05:29:54;24.40;99.90
10662;DHT22;5379;51.034;7.006;2023-07-29T05:32:21;24.70;99.90
10662;DHT22;5379;51.034;7.006;2023-07-29T05:34:48;24.80;99.90
10662;DHT22;5379;51.034;7.006;2023-07-29T05:37:15;25.20;99.90
10662;DHT22;5379;51.034;7.006;2023-07-29T05:39:43;25.00;99.90
10662;DHT22;5379;51.034;7.006;2023-07-29T05:42:10;25.20;99.90
10662;DHT22;5379;51.034;7.006;2023-07-29T05:44:37;25.40;99.90
10662;DHT22;5379;51.034;7.006;2023-07-29T05:47:04;25.40;99.90
10662;DHT22;5379;51.034;7.006;2023-07-29T05:49:31;25.30;99.90
10662;DHT22;5379;51.034;7.006;2023-07-29T05:51:58;25.20;99.90
10662;DHT22;5379;51.034;7.006;2023-07-29T05:54:25;25.20;99.90
10662;DHT22;5379;51.034;7.006;2023-07-29T05:56:54;25.00;99.90
10662;DHT22;5379;51.034;7.006;2023-07-29T05:59:20;25.30;99.90
10662;DHT22;5379;51.034;7.006;2023-07-29T06:01:47;25.20;99.90
10662;DHT22;5379;51.034;7.006;2023-07-29T06:04:14;25.00;99.90
10662;DHT22;5379;51.034;7.006;2023-07-29T06:06:41;25.10;99.90
10662;DHT22;5379;51.034;7.006;2023-07-29T06:09:08;24.90;99.90
10662;DHT22;5379;51.034;7.006;2023-07-29T06:11:35;24.90;99.90
10662;DHT22;5379;51.034;7.006;2023-07-29T06:14:03;25.00;99.90
10662;DHT22;5379;51.034;7.006;2023-07-29T06:16:30;24.90;99.90
10662;DHT22;5379;51.034;7.006;2023-07-29T06:18:57;24.60;99.90
10662;DHT22;5379;51.034;7.006;2023-07-29T06:21:24;24.40;99.90
10662;DHT22;5379;51.034;7.006;2023-07-29T06:23:51;24.60;99.90
10662;DHT22;5379;51.034;7.006;2023-07-29T06:26:18;24.60;99.90
10662;DHT22;5379;51.034;7.006;2023-07-29T06:28:45;24.50;99.90
10662;DHT22;5379;51.034;7.006;2023-07-29T06:31:13;24.80;99.90
10662;DHT22;5379;51.034;7.006;2023-07-29T06:33:40;25.20;99.90
10662;DHT22;5379;51.034;7.006;2023-07-29T06:36:07;25.20;99.90
10662;DHT22;5379;51.034;7.006;2023-07-29T06:38:34;25.30;99.90
10662;DHT22;5379;51.034;7.006;2023-07-29T06:41:01;25.30;99.90
10662;DHT22;5379;51.034;7.006;2023-07-29T06:43:28;25.10;99.90
10662;DHT22;5379;51.034;7.006;2023-07-29T06:45:55;24.80;99.90
10662;DHT22;5379;51.034;7.006;2023-07-29T06:48:23;25.00;99.90
10662;DHT22;5379;51.034;7.006;2023-07-29T06:50:50;25.00;99.90
10662;DHT22;5379;51.034;7.006;2023-07-29T06:53:17;24.80;99.90
10662;DHT22;5379;51.034;7.006;2023-07-29T06:55:44;24.80;99.90
10662;DHT22;5379;51.034;7.006;2023-07-29T06:58:11;25.00;99.90
10662;DHT22;5379;51.034;7.006;2023-07-29T07:00:38;24.50;99.90
10662;DHT22;5379;51.034;7.006;2023-07-29T07:03:05;24.50;99.90
10662;DHT22;5379;51.034;7.006;2023-07-29T07:05:33;24.50;99.90
10662;DHT22;5379;51.034;7.006;2023-07-29T07:08:01;24.50;99.90
10662;DHT22;5379;51.034;7.006;2023-07-29T07:10:28;24.70;99.90
10662;DHT22;5379;51.034;7.006;2023-07-29T07:12:55;24.60;99.90
10662;DHT22;5379;51.034;7.006;2023-07-29T07:15:22;24.80;99.90
10662;DHT22;5379;51.034;7.006;2023-07-29T07:17:51;25.10;99.90
10662;DHT22;5379;51.034;7.006;2023-07-29T07:20:18;25.10;99.90
10662;DHT22;5379;51.034;7.006;2023-07-29T07:22:46;25.10;99.90
10662;DHT22;5379;51.034;7.006;2023-07-29T07:25:13;25.20;99.90
10662;DHT22;5379;51.034;7.006;2023-07-29T07:27:40;25.50;99.90
10662;DHT22;5379;51.034;7.006;2023-07-29T07:30:08;25.50;99.90
10662;DHT22;5379;51.034;7.006;2023-07-29T07:32:35;25.70;99.90
10662;DHT22;5379;51.034;7.006;2023-07-29T07:35:02;25.80;99.90
10662;DHT22;5379;51.034;7.006;2023-07-29T07:37:29;26.10;99.90
10662;DHT22;5379;51.034;7.006;2023-07-29T07:39:58;26.00;99.90
10662;DHT22;5379;51.034;7.006;2023-07-29T07:42:25;25.90;99.90
10662;DHT22;5379;51.034;7.006;2023-07-29T07:44:51;26.20;99.90
10662;DHT22;5379;51.034;7.006;2023-07-29T07:47:18;26.00;99.90
10662;DHT22;5379;51.034;7.006;2023-07-29T07:49:45;26.00;99.90
10662;DHT22;5379;51.034;7.006;2023-07-29T07:52:14;25.60;99.90
10662;DHT22;5379;51.034;7.006;2023-07-29T07:54:41;25.60;99.90
10662;DHT22;5379;51.034;7.006;2023-07-29T07:57:10;25.40;99.90
10662;DHT22;5379;51.034;7.006;2023-07-29T07:59:36;25.40;99.90
10662;DHT22;5379;51.034;7.006;2023-07-29T08:02:04;25.70;99.90
10662;DHT22;5379;51.034;7.006;2023-07-29T08:04:31;25.90;99.90
10662;DHT22;5379;51.034;7.006;2023-07-29T08:06:58;25.80;99.90
10662;DHT22;5379;51.034;7.006;2023-07-29T08:09:25;26.00;99.90
10662;DHT22;5379;51.034;7.006;2023-07-29T08:11:52;26.10;99.90
10662;DHT22;5379;51.034;7.006;2023-07-29T08:14:20;26.00;99.90
10662;DHT22;5379;51.034;7.006;2023-07-29T08:16:47;26.00;99.90
10662;DHT22;5379;51.034;7.006;2023-07-29T08:19:14;26.10;99.90
10662;DHT22;5379;51.034;7.006;2023-07-29T08:21:41;26.20;99.90
10662;DHT22;5379;51.034;7.006;2023-07-29T08:24:07;25.80;99.90
10662;DHT22;5379;51.034;7.006;2023-07-29T08:26:34;25.70;99.90
10662;DHT22;5379;51.034;7.006;2023-07-29T08:29:01;25.70;99.90
10662;DHT22;5379;51.034;7.006;2023-07-29T08:31:30;25.80;99.90
10662;DHT22;5379;51.034;7.006;2023-07-29T08:33:59;25.60;99.90
10662;DHT22;5379;51.034;7.006;2023-07-29T08:36:26;25.00;99.90
10662;DHT22;5379;51.034;7.006;2023-07-29T08:38:53;24.80;99.90
10662;DHT22;5379;51.034;7.006;2023-07-29T08:41:26;24.80;99.90
10662;DHT22;5379;51.034;7.006;2023-07-29T08:43:59;25.20;99.90
10662;DHT22;5379;51.034;7.006;2023-07-29T08:46:30;25.60;99.90
10662;DHT22;5379;51.034;7.006;2023-07-29T08:48:57;25.60;99.90
10662;DHT22;5379;51.034;7.006;2023-07-29T08:51:26;25.80;99.90
10662;DHT22;5379;51.034;7.006;2023-07-29T08:53:53;26.00;99.90
10662;DHT22;5379;51.034;7.006;2023-07-29T08:56:20;25.80;99.90
10662;DHT22;5379;51.034;7.006;2023-07-29T08:58:48;25.80;99.90
10662;DHT22;5379;51.034;7.006;2023-07-29T09:01:15;25.60;99.90
10662;DHT22;5379;51.034;7.006;2023-07-29T09:03:44;25.70;99.90
10662;DHT22;5379;51.034;7.006;2023-07-29T09:06:11;25.10;99.90
10662;DHT22;5379;51.034;7.006;2023-07-29T09:08:38;25.10;99.90
10662;DHT22;5379;51.034;7.006;2023-07-29T09:11:06;25.30;99.90
10662;DHT22;5379;51.034;7.006;2023-07-29T09:13:34;25.50;99.90
10662;DHT22;5379;51.034;7.006;2023-07-29T09:16:01;25.60;99.90
10662;DHT22;5379;51.034;7.006;2023-07-29T09:18:28;25.70;99.90
10662;DHT22;5379;51.034;7.006;2023-07-29T09:20:59;25.90;99.90
10662;DHT22;5379;51.034;7.006;2023-07-29T09:23:26;25.90;99.90
10662;DHT22;5379;51.034;7.006;2023-07-29T09:26:00;26.00;99.90
10662;DHT22;5379;51.034;7.006;2023-07-29T09:28:33;25.80;99.90
10662;DHT22;5379;51.034;7.006;2023-07-29T09:31:00;26.00;99.90
10662;DHT22;5379;51.034;7.006;2023-07-29T09:33:27;26.00;99.90
10662;DHT22;5379;51.034;7.006;2023-07-29T09:35:56;26.20;99.90
10662;DHT22;5379;51.034;7.006;2023-07-29T09:38:27;26.40;99.90
10662;DHT22;5379;51.034;7.006;2023-07-29T09:40:55;26.50;99.90
10662;DHT22;5379;51.034;7.006;2023-07-29T09:43:25;26.10;99.90
10662;DHT22;5379;51.034;7.006;2023-07-29T09:45:53;25.80;99.90
10662;DHT22;5379;51.034;7.006;2023-07-29T09:48:22;25.80;99.90
10662;DHT22;5379;51.034;7.006;2023-07-29T09:50:49;26.10;99.90
10662;DHT22;5379;51.034;7.006;2023-07-29T09:53:18;26.30;99.90
10662;DHT22;5379;51.034;7.006;2023-07-29T09:55:46;26.50;99.90
10662;DHT22;5379;51.034;7.006;2023-07-29T09:58:14;26.60;99.90
10662;DHT22;5379;51.034;7.006;2023-07-29T10:00:41;26.60;99.90
10662;DHT22;5379;51.034;7.006;2023-07-29T10:03:08;26.50;99.90
10662;DHT22;5379;51.034;7.006;2023-07-29T10:05:35;26.70;99.90
10662;DHT22;5379;51.034;7.006;2023-07-29T10:08:04;26.50;99.90
10662;DHT22;5379;51.034;7.006;2023-07-29T10:10:33;26.50;99.90
10662;DHT22;5379;51.034;7.006;2023-07-29T10:13:00;26.50;99.90
10662;DHT22;5379;51.034;7.006;2023-07-29T10:15:29;26.50;99.90
10662;DHT22;5379;51.034;7.006;2023-07-29T10:17:59;26.60;99.90
10662;DHT22;5379;51.034;7.006;2023-07-29T10:20:26;26.50;99.90
10662;DHT22;5379;51.034;7.006;2023-07-29T10:22:56;26.50;99.90
10662;DHT22;5379;51.034;7.006;2023-07-29T10:25:25;26.10;99.90
10662;DHT22;5379;51.034;7.006;2023-07-29T10:28:04;26.00;99.90
10662;DHT22;5379;51.034;7.006;2023-07-29T10:30:31;26.20;99.90
10662;DHT22;5379;51.034;7.006;2023-07-29T10:33:01;26.20;99.90
10662;DHT22;5379;51.034;7.006;2023-07-29T10:35:28;26.20;99.90
10662;DHT22;5379;51.034;7.006;2023-07-29T10:37:56;26.30;99.90
10662;DHT22;5379;51.034;7.006;2023-07-29T10:40:23;26.20;99.90
10662;DHT22;5379;51.034;7.006;2023-07-29T10:43:01;26.10;99.90
10662;DHT22;5379;51.034;7.006;2023-07-29T10:45:37;26.20;99.90
10662;DHT22;5379;51.034;7.006;2023-07-29T10:48:06;26.30;99.90
10662;DHT22;5379;51.034;7.006;2023-07-29T10:50:34;26.70;99.90
10662;DHT22;5379;51.034;7.006;2023-07-29T10:53:01;26.60;99.90
10662;DHT22;5379;51.034;7.006;2023-07-29T10:55:31;26.40;99.90
10662;DHT22;5379;51.034;7.006;2023-07-29T10:58:16;26.10;99.90
10662;DHT22;5379;51.034;7.006;2023-07-29T11:00:44;26.20;99.90
10662;DHT22;5379;51.034;7.006;2023-07-29T11:03:12;26.20;99.90
10662;DHT22;5379;51.034;7.006;2023-07-29T11:05:46;25.80;99.90
10662;DHT22;5379;51.034;7.006;2023-07-29T11:08:30;25.80;99.90
10662;DHT22;5379;51.034;7.006;2023-07-29T11:11:02;25.70;99.90
10662;DHT22;5379;51.034;7.006;2023-07-29T11:13:31;25.60;99.90
10662;DHT22;5379;51.034;7.006;2023-07-29T11:15:59;25.60;99.90
10662;DHT22;5379;51.034;7.006;2023-07-29T11:18:27;25.80;99.90
10662;DHT22;5379;51.034;7.006;2023-07-29T11:20:55;25.70;99.90
10662;DHT22;5379;51.034;7.006;2023-07-29T11:23:28;26.00;99.90
10662;DHT22;5379;51.034;7.006;2023-07-29T11:25:56;26.00;99.90
10662;DHT22;5379;51.034;7.006;2023-07-29T11:28:23;26.00;99.90
10662;DHT22;5379;51.034;7.006;2023-07-29T11:30:52;25.60;99.90
10662;DHT22;5379;51.034;7.006;2023-07-29T11:33:20;25.70;99.90
10662;DHT22;5379;51.034;7.006;2023-07-29T11:35:47;26.00;99.90
10662;DHT22;5379;51.034;7.006;2023-07-29T11:38:16;26.30;99.90
10662;DHT22;5379;51.034;7.006;2023-07-29T11:40:43;25.90;99.90
10662;DHT22;5379;51.034;7.006;2023-07-29T11:43:17;25.90;99.90
10662;DHT22;5379;51.034;7.006;2023-07-29T11:45:45;26.20;99.90
10662;DHT22;5379;51.034;7.006;2023-07-29T11:48:13;26.30;99.90
10662;DHT22;5379;51.034;7.006;2023-07-29T11:50:40;26.00;99.90
10662;DHT22;5379;51.034;7.006;2023-07-29T11:53:07;25.90;99.90
10662;DHT22;5379;51.034;7.006;2023-07-29T11:55:34;26.10;99.90
10662;DHT22;5379;51.034;7.006;2023-07-29T11:58:01;26.10;99.90
10662;DHT22;5379;51.034;7.006;2023-07-29T12:00:28;25.90;99.90
10662;DHT22;5379;51.034;7.006;2023-07-29T12:02:56;25.90;99.90
10662;DHT22;5379;51.034;7.006;2023-07-29T12:05:25;26.10;99.90
10662;DHT22;5379;51.034;7.006;2023-07-29T12:07:52;26.20;99.90
10662;DHT22;5379;51.034;7.006;2023-07-29T12:10:19;26.20;99.90
10662;DHT22;5379;51.034;7.006;2023-07-29T12:12:48;26.20;99.90
10662;DHT22;5379;51.034;7.006;2023-07-29T12:15:23;26.00;99.90
10662;DHT22;5379;51.034;7.006;2023-07-29T12:17:53;26.10;99.90
10662;DHT22;5379;51.034;7.006;2023-07-29T12:20:21;26.20;99.90
10662;DHT22;5379;51.034;7.006;2023-07-29T12:22:53;26.00;99.90
10662;DHT22;5379;51.034;7.006;2023-07-29T12:25:21;25.80;99.90
10662;DHT22;5379;51.034;7.006;2023-07-29T12:27:48;25.90;99.90
10662;DHT22;5379;51.034;7.006;2023-07-29T12:30:15;26.20;99.90
10662;DHT22;5379;51.034;7.006;2023-07-29T12:32:45;26.40;99.90
10662;DHT22;5379;51.034;7.006;2023-07-29T12:35:13;26.40;99.90
10662;DHT22;5379;51.034;7.006;2023-07-29T12:37:40;26.30;99.90
10662;DHT22;5379;51.034;7.006;2023-07-29T12:40:21;26.30;99.90
10662;DHT22;5379;51.034;7.006;2023-07-29T12:42:49;26.30;99.90
10662;DHT22;5379;51.034;7.006;2023-07-29T12:45:16;26.50;99.90
10662;DHT22;5379;51.034;7.006;2023-07-29T12:47:43;26.50;99.90
10662;DHT22;5379;51.034;7.006;2023-07-29T12:50:10;26.40;99.90
10662;DHT22;5379;51.034;7.006;2023-07-29T12:52:37;26.20;99.90
10662;DHT22;5379;51.034;7.006;2023-07-29T12:55:05;26.30;99.90
10662;DHT22;5379;51.034;7.006;2023-07-29T12:57:35;26.40;99.90
10662;DHT22;5379;51.034;7.006;2023-07-29T13:00:03;26.30;99.90
10662;DHT22;5379;51.034;7.006;2023-07-29T13:02:31;26.20;99.90
10662;DHT22;5379;51.034;7.006;2023-07-29T13:04:58;26.00;99.90
10662;DHT22;5379;51.034;7.006;2023-07-29T13:07:25;25.70;99.90
10662;DHT22;5379;51.034;7.006;2023-07-29T13:09:52;25.70;99.90
10662;DHT22;5379;51.034;7.006;2023-07-29T13:12:19;25.50;99.90
10662;DHT22;5379;51.034;7.006;2023-07-29T13:14:48;25.60;99.90
10662;DHT22;5379;51.034;7.006;2023-07-29T13:17:15;25.80;99.90
10662;DHT22;5379;51.034;7.006;2023-07-29T13:19:41;25.90;99.90
10662;DHT22;5379;51.034;7.006;2023-07-29T13:22:08;26.00;99.90
10662;DHT22;5379;51.034;7.006;2023-07-29T13:24:35;26.20;99.90
10662;DHT22;5379;51.034;7.006;2023-07-29T13:27:03;26.10;99.90
10662;DHT22;5379;51.034;7.006;2023-07-29T13:29:30;26.40;99.90
10662;DHT22;5379;51.034;7.006;2023-07-29T13:31:58;26.50;99.90
10662;DHT22;5379;51.034;7.006;2023-07-29T13:34:25;26.60;99.90
10662;DHT22;5379;51.034;7.006;2023-07-29T13:36:52;26.60;99.90
10662;DHT22;5379;51.034;7.006;2023-07-29T13:39:19;26.30;99.90
10662;DHT22;5379;51.034;7.006;2023-07-29T13:41:46;26.40;99.90
10662;DHT22;5379;51.034;7.006;2023-07-29T13:44:13;26.40;99.90
10662;DHT22;5379;51.034;7.006;2023-07-29T13:46:40;26.50;99.90
10662;DHT22;5379;51.034;7.006;2023-07-29T13:49:08;26.70;99.90
10662;DHT22;5379;51.034;7.006;2023-07-29T13:51:35;26.70;99.90
10662;DHT22;5379;51.034;7.006;2023-07-29T13:54:02;26.60;99.90
10662;DHT22;5379;51.034;7.006;2023-07-29T13:56:29;26.80;99.90
10662;DHT22;5379;51.034;7.006;2023-07-29T13:58:56;27.00;99.90
10662;DHT22;5379;51.034;7.006;2023-07-29T14:01:23;27.00;99.90
10662;DHT22;5379;51.034;7.006;2023-07-29T14:03:50;26.90;99.90
10662;DHT22;5379;51.034;7.006;2023-07-29T14:06:18;26.80;99.90
10662;DHT22;5379;51.034;7.006;2023-07-29T14:08:45;26.50;99.90
10662;DHT22;5379;51.034;7.006;2023-07-29T14:11:12;26.40;99.90
10662;DHT22;5379;51.034;7.006;2023-07-29T14:13:39;26.40;99.90
10662;DHT22;5379;51.034;7.006;2023-07-29T14:16:06;26.40;99.90
10662;DHT22;5379;51.034;7.006;2023-07-29T14:18:33;26.40;99.90
10662;DHT22;5379;51.034;7.006;2023-07-29T14:21:00;26.30;99.90
10662;DHT22;5379;51.034;7.006;2023-07-29T14:23:28;26.00;99.90
10662;DHT22;5379;51.034;7.006;2023-07-29T14:25:55;26.20;99.90
10662;DHT22;5379;51.034;7.006;2023-07-29T14:28:22;26.60;99.90
10662;DHT22;5379;51.034;7.006;2023-07-29T14:30:49;26.70;99.90
10662;DHT22;5379;51.034;7.006;2023-07-29T14:33:16;26.30;99.90
10662;DHT22;5379;51.034;7.006;2023-07-29T14:35:43;26.30;99.90
10662;DHT22;5379;51.034;7.006;2023-07-29T14:38:10;26.30;99.90
10662;DHT22;5379;51.034;7.006;2023-07-29T14:40:38;26.40;99.90
10662;DHT22;5379;51.034;7.006;2023-07-29T14:43:05;26.40;99.90
10662;DHT22;5379;51.034;7.006;2023-07-29T14:45:32;26.10;99.90
10662;DHT22;5379;51.034;7.006;2023-07-29T14:47:59;26.30;99.90
10662;DHT22;5379;51.034;7.006;2023-07-29T14:50:26;26.50;99.90
10662;DHT22;5379;51.034;7.006;2023-07-29T14:52:56;26.40;99.90
10662;DHT22;5379;51.034;7.006;2023-07-29T14:58:38;26.40;99.90
10662;DHT22;5379;51.034;7.006;2023-07-29T15:09:24;25.70;99.90
10662;DHT22;5379;51.034;7.006;2023-07-29T15:21:45;25.50;99.90
10662;DHT22;5379;51.034;7.006;2023-07-29T15:24:12;24.80;99.90
10662;DHT22;5379;51.034;7.006;2023-07-29T15:26:40;25.00;99.90
10662;DHT22;5379;51.034;7.006;2023-07-29T15:29:08;25.10;99.90
10662;DHT22;5379;51.034;7.006;2023-07-29T15:31:36;25.00;99.90
10662;DHT22;5379;51.034;7.006;2023-07-29T15:34:03;25.00;99.90
10662;DHT22;5379;51.034;7.006;2023-07-29T15:38:59;25.30;99.90
10662;DHT22;5379;51.034;7.006;2023-07-29T15:41:26;25.50;99.90
10662;DHT22;5379;51.034;7.006;2023-07-29T15:43:53;25.90;99.90
10662;DHT22;5379;51.034;7.006;2023-07-29T15:46:20;25.80;99.90
10662;DHT22;5379;51.034;7.006;2023-07-29T15:48:48;25.80;99.90
10662;DHT22;5379;51.034;7.006;2023-07-29T15:51:15;25.30;99.90
10662;DHT22;5379;51.034;7.006;2023-07-29T15:53:42;24.70;99.90
10662;DHT22;5379;51.034;7.006;2023-07-29T15:56:09;24.90;99.90
10662;DHT22;5379;51.034;7.006;2023-07-29T15:58:36;25.10;99.90
10662;DHT22;5379;51.034;7.006;2023-07-29T16:01:03;25.40;99.90
10662;DHT22;5379;51.034;7.006;2023-07-29T16:03:30;25.40;99.90
10662;DHT22;5379;51.034;7.006;2023-07-29T16:05:59;24.70;99.90
10662;DHT22;5379;51.034;7.006;2023-07-29T16:08:27;25.00;99.90
10662;DHT22;5379;51.034;7.006;2023-07-29T16:10:54;25.00;99.90
10662;DHT22;5379;51.034;7.006;2023-07-29T16:13:21;25.50;99.90
10662;DHT22;5379;51.034;7.006;2023-07-29T16:15:49;25.90;99.90
10662;DHT22;5379;51.034;7.006;2023-07-29T16:18:18;26.20;99.90
10662;DHT22;5379;51.034;7.006;2023-07-29T16:20:45;26.30;99.90
10662;DHT22;5379;51.034;7.006;2023-07-29T16:23:16;26.20;99.90
10662;DHT22;5379;51.034;7.006;2023-07-29T16:25:43;26.20;99.90
10662;DHT22;5379;51.034;7.006;2023-07-29T16:28:10;26.30;99.90
10662;DHT22;5379;51.034;7.006;2023-07-29T16:30:37;26.70;99.90
10662;DHT22;5379;51.034;7.006;2023-07-29T16:33:04;26.70;99.90
10662;DHT22;5379;51.034;7.006;2023-07-29T16:35:31;26.90;99.90
10662;DHT22;5379;51.034;7.006;2023-07-29T16:37:58;26.70;99.90
10662;DHT22;5379;51.034;7.006;2023-07-29T16:40:27;26.80;99.90
10662;DHT22;5379;51.034;7.006;2023-07-29T16:42:54;26.90;99.90
10662;DHT22;5379;51.034;7.006;2023-07-29T16:45:22;27.00;99.90
10662;DHT22;5379;51.034;7.006;2023-07-29T16:47:49;26.90;99.90
10662;DHT22;5379;51.034;7.006;2023-07-29T16:50:16;26.90;99.90
10662;DHT22;5379;51.034;7.006;2023-07-29T16:52:43;26.80;99.90
10662;DHT22;5379;51.034;7.006;2023-07-29T16:55:10;26.60;99.90
10662;DHT22;5379;51.034;7.006;2023-07-29T16:57:39;26.50;99.90
10662;DHT22;5379;51.034;7.006;2023-07-29T17:00:07;26.50;99.90
10662;DHT22;5379;51.034;7.006;2023-07-29T17:02:34;26.70;99.90
10662;DHT22;5379;51.034;7.006;2023-07-29T17:05:01;26.90;99.90
10662;DHT22;5379;51.034;7.006;2023-07-29T17:07:29;27.00;99.90
10662;DHT22;5379;51.034;7.006;2023-07-29T17:09:56;27.20;99.90
10662;DHT22;5379;51.034;7.006;2023-07-29T17:12:23;27.30;99.90
10662;DHT22;5379;51.034;7.006;2023-07-29T17:14:52;27.40;99.90
10662;DHT22;5379;51.034;7.006;2023-07-29T17:17:19;27.50;99.90
10662;DHT22;5379;51.034;7.006;2023-07-29T17:19:46;27.40;99.90
10662;DHT22;5379;51.034;7.006;2023-07-29T17:22:13;27.50;99.90
10662;DHT22;5379;51.034;7.006;2023-07-29T17:24:40;27.40;99.90
10662;DHT22;5379;51.034;7.006;2023-07-29T17:27:07;27.20;99.90
10662;DHT22;5379;51.034;7.006;2023-07-29T17:29:35;27.10;99.90
10662;DHT22;5379;51.034;7.006;2023-07-29T17:32:04;27.20;99.90
10662;DHT22;5379;51.034;7.006;2023-07-29T17:36:58;27.40;99.90
10662;DHT22;5379;51.034;7.006;2023-07-29T17:39:25;27.20;99.90
10662;DHT22;5379;51.034;7.006;2023-07-29T17:41:52;27.30;99.90
10662;DHT22;5379;51.034;7.006;2023-07-29T17:44:19;27.40;99.90
10662;DHT22;5379;51.034;7.006;2023-07-29T17:46:46;27.40;99.90
10662;DHT22;5379;51.034;7.006;2023-07-29T17:49:14;27.40;99.90
10662;DHT22;5379;51.034;7.006;2023-07-29T17:51:41;27.50;99.90
10662;DHT22;5379;51.034;7.006;2023-07-29T17:54:08;27.50;99.90
10662;DHT22;5379;51.034;7.006;2023-07-29T17:56:35;27.60;99.90
10662;DHT22;5379;51.034;7.006;2023-07-29T17:59:02;27.60;99.90
10662;DHT22;5379;51.034;7.006;2023-07-29T18:05:34;27.50;99.90
10662;DHT22;5379;51.034;7.006;2023-07-29T18:14:33;28.60;99.90
10662;DHT22;5379;51.034;7.006;2023-07-29T18:35:08;26.90;99.90
10662;DHT22;5379;51.034;7.006;2023-07-29T18:44:55;26.70;99.90
10662;DHT22;5379;51.034;7.006;2023-07-29T18:51:22;26.80;99.90
10662;DHT22;5379;51.034;7.006;2023-07-29T18:54:10;26.70;99.90
10662;DHT22;5379;51.034;7.006;2023-07-29T18:57:15;26.60;99.90
10662;DHT22;5379;51.034;7.006;2023-07-29T19:09:42;26.20;99.90
10662;DHT22;5379;51.034;7.006;2023-07-29T19:12:11;25.90;99.90
10662;DHT22;5379;51.034;7.006;2023-07-29T19:19:34;25.90;99.90
10662;DHT22;5379;51.034;7.006;2023-07-29T19:22:01;25.90;99.90
10662;DHT22;5379;51.034;7.006;2023-07-29T19:24:30;25.80;99.90
10662;DHT22;5379;51.034;7.006;2023-07-29T19:26:56;25.50;99.90
10662;DHT22;5379;51.034;7.006;2023-07-29T19:29:26;25.40;99.90
10662;DHT22;5379;51.034;7.006;2023-07-29T19:31:53;25.30;99.90
10662;DHT22;5379;51.034;7.006;2023-07-29T19:34:20;25.70;99.90
10662;DHT22;5379;51.034;7.006;2023-07-29T19:36:48;26.00;99.90
10662;DHT22;5379;51.034;7.006;2023-07-29T19:39:17;26.20;99.90
10662;DHT22;5379;51.034;7.006;2023-07-29T19:41:45;26.10;99.90
10662;DHT22;5379;51.034;7.006;2023-07-29T19:44:12;25.90;99.90
10662;DHT22;5379;51.034;7.006;2023-07-29T19:46:39;25.50;99.90
10662;DHT22;5379;51.034;7.006;2023-07-29T19:49:06;25.70;99.90
10662;DHT22;5379;51.034;7.006;2023-07-29T19:51:33;25.80;99.90
10662;DHT22;5379;51.034;7.006;2023-07-29T19:54:00;25.80;99.90
10662;DHT22;5379;51.034;7.006;2023-07-29T19:56:27;25.80;99.90
10662;DHT22;5379;51.034;7.006;2023-07-29T19:58:55;25.50;99.90
10662;DHT22;5379;51.034;7.006;2023-07-29T20:01:22;25.50;99.90
10662;DHT22;5379;51.034;7.006;2023-07-29T20:03:49;25.10;99.90
10662;DHT22;5379;51.034;7.006;2023-07-29T20:06:16;24.80;99.90
10662;DHT22;5379;51.034;7.006;2023-07-29T20:08:43;24.80;99.90
10662;DHT22;5379;51.034;7.006;2023-07-29T20:11:09;25.30;99.90
10662;DHT22;5379;51.034;7.006;2023-07-29T20:13:36;25.60;99.90
10662;DHT22;5379;51.034;7.006;2023-07-29T20:16:05;25.50;99.90
10662;DHT22;5379;51.034;7.006;2023-07-29T20:18:32;25.30;99.90
10662;DHT22;5379;51.034;7.006;2023-07-29T20:20:59;25.20;99.90
10662;DHT22;5379;51.034;7.006;2023-07-29T20:23:26;25.00;99.90
10662;DHT22;5379;51.034;7.006;2023-07-29T20:25:52;24.80;99.90
10662;DHT22;5379;51.034;7.006;2023-07-29T20:28:19;24.70;99.90
10662;DHT22;5379;51.034;7.006;2023-07-29T20:30:54;24.70;99.90
10662;DHT22;5379;51.034;7.006;2023-07-29T20:35:55;24.20;99.90
10662;DHT22;5379;51.034;7.006;2023-07-29T20:38:22;24.20;99.90
10662;DHT22;5379;51.034;7.006;2023-07-29T20:40:50;24.00;99.90
10662;DHT22;5379;51.034;7.006;2023-07-29T20:43:17;23.80;99.90
10662;DHT22;5379;51.034;7.006;2023-07-29T20:45:45;23.90;99.90
10662;DHT22;5379;51.034;7.006;2023-07-29T20:48:12;23.80;99.90
10662;DHT22;5379;51.034;7.006;2023-07-29T20:50:41;23.80;99.90
10662;DHT22;5379;51.034;7.006;2023-07-29T20:53:08;23.80;99.90
10662;DHT22;5379;51.034;7.006;2023-07-29T20:55:35;23.40;99.90
10662;DHT22;5379;51.034;7.006;2023-07-29T20:58:02;23.10;99.90
10662;DHT22;5379;51.034;7.006;2023-07-29T21:00:29;23.00;99.90
10662;DHT22;5379;51.034;7.006;2023-07-29T21:02:56;22.50;99.90
10662;DHT22;5379;51.034;7.006;2023-07-29T21:05:23;22.80;99.90
10662;DHT22;5379;51.034;7.006;2023-07-29T21:07:52;22.90;99.90
10662;DHT22;5379;51.034;7.006;2023-07-29T21:10:19;22.80;99.90
10662;DHT22;5379;51.034;7.006;2023-07-29T21:12:46;22.70;99.90
10662;DHT22;5379;51.034;7.006;2023-07-29T21:15:14;22.60;99.90
10662;DHT22;5379;51.034;7.006;2023-07-29T21:17:40;22.60;99.90
10662;DHT22;5379;51.034;7.006;2023-07-29T21:20:08;22.50;99.90
10662;DHT22;5379;51.034;7.006;2023-07-29T21:22:36;22.60;99.90
10662;DHT22;5379;51.034;7.006;2023-07-29T21:25:05;22.80;99.90
10662;DHT22;5379;51.034;7.006;2023-07-29T21:27:32;22.60;99.90
10662;DHT22;5379;51.034;7.006;2023-07-29T21:29:59;22.60;99.90
10662;DHT22;5379;51.034;7.006;2023-07-29T21:32:26;22.70;99.90
10662;DHT22;5379;51.034;7.006;2023-07-29T21:34:53;22.50;99.90
10662;DHT22;5379;51.034;7.006;2023-07-29T21:37:21;22.30;99.90
10662;DHT22;5379;51.034;7.006;2023-07-29T21:39:48;22.40;99.90
10662;DHT22;5379;51.034;7.006;2023-07-29T21:42:17;22.30;99.90
10662;DHT22;5379;51.034;7.006;2023-07-29T21:44:44;22.30;99.90